createdAt,value
2023-05-08T00:00:30.035Z,35.20
2023-05-08T00:03:24.499Z,24.30
2023-05-08T00:05:58.171Z,13.90
2023-05-08T00:08:31.308Z,19.40
2023-05-08T00:11:04.973Z,15.50
2023-05-08T00:13:38.493Z,18.50
2023-05-08T00:16:13.130Z,21.30
2023-05-08T00:18:47.153Z,22.30
2023-05-08T00:21:20.733Z,33.10
2023-05-08T00:23:54.569Z,37.40
2023-05-08T00:26:28.329Z,33.20
2023-05-08T00:29:02.009Z,20.90
2023-05-08T00:31:35.603Z,13.10
2023-05-08T00:34:09.235Z,12.30
2023-05-08T00:36:43.663Z,11.80
2023-05-08T00:39:16.989Z,12.70
2023-05-08T00:41:50.411Z,11.30
2023-05-08T00:44:24.511Z,11.20
2023-05-08T00:46:58.166Z,11.00
2023-05-08T00:49:31.980Z,9.90
2023-05-08T00:52:08.947Z,9.30
2023-05-08T00:54:43.335Z,10.00
2023-05-08T00:57:19.035Z,9.70
2023-05-08T00:59:54.480Z,9.90
2023-05-08T01:02:27.860Z,10.30
2023-05-08T01:05:01.706Z,11.00
2023-05-08T01:07:35.691Z,9.30
2023-05-08T01:10:11.014Z,8.50
2023-05-08T01:12:55.765Z,9.90
2023-05-08T01:15:36.799Z,9.10
2023-05-08T01:18:16.667Z,9.30
2023-05-08T01:20:57.562Z,11.50
2023-05-08T01:24:03.342Z,8.70
2023-05-08T01:27:21.747Z,9.60
2023-05-08T01:30:24.299Z,7.90
2023-05-08T01:33:03.911Z,8.70
2023-05-08T01:35:45.689Z,9.50
2023-05-08T01:38:24.442Z,9.20
2023-05-08T01:43:37.371Z,10.10
2023-05-08T01:46:16.659Z,9.00
2023-05-08T01:48:55.792Z,10.80
2023-05-08T01:51:35.068Z,10.50
2023-05-08T01:54:11.389Z,10.10
2023-05-08T01:56:48.744Z,9.40
2023-05-08T01:59:25.524Z,9.90
2023-05-08T02:02:00.928Z,10.80
2023-05-08T02:04:37.778Z,9.40
2023-05-08T02:07:11.621Z,9.50
2023-05-08T02:09:45.876Z,10.10
2023-05-08T02:12:22.595Z,10.20
2023-05-08T02:14:58.765Z,8.70
2023-05-08T02:17:33.341Z,10.20
2023-05-08T02:20:15.476Z,9.10
2023-05-08T02:22:53.276Z,11.10
2023-05-08T02:25:28.036Z,14.00
2023-05-08T02:28:03.080Z,9.00
2023-05-08T02:30:37.765Z,10.30
2023-05-08T02:33:15.075Z,10.70
2023-05-08T02:35:50.993Z,9.70
2023-05-08T02:38:27.128Z,11.50
2023-05-08T02:41:05.889Z,10.40
2023-05-08T02:43:39.694Z,10.40
2023-05-08T02:46:20.477Z,10.80
2023-05-08T02:49:00.988Z,10.20
2023-05-08T02:51:49.455Z,10.80
2023-05-08T02:54:34.093Z,11.50
2023-05-08T02:57:16.729Z,9.20
2023-05-08T02:59:57.630Z,8.70
2023-05-08T03:02:35.917Z,11.30
2023-05-08T03:07:49.274Z,8.90
2023-05-08T03:10:25.490Z,9.30
2023-05-08T03:13:01.671Z,10.00
2023-05-08T03:15:39.547Z,11.40
2023-05-08T03:18:16.749Z,10.10
2023-05-08T03:20:56.062Z,8.70
2023-05-08T03:23:32.188Z,10.60
2023-05-08T03:26:07.617Z,10.10
2023-05-08T03:28:42.581Z,9.70
2023-05-08T03:31:18.910Z,9.70
2023-05-08T03:33:57.129Z,11.30
2023-05-08T03:36:30.742Z,10.00
2023-05-08T03:39:05.844Z,10.40
2023-05-08T03:41:39.596Z,9.20
2023-05-08T03:44:14.013Z,9.50
2023-05-08T03:46:49.287Z,10.30
2023-05-08T03:49:25.447Z,9.20
2023-05-08T03:52:00.150Z,9.20
2023-05-08T03:54:33.448Z,10.80
2023-05-08T03:57:07.094Z,11.10
2023-05-08T03:59:48.783Z,9.80
2023-05-08T04:02:30.575Z,11.00
2023-05-08T04:05:16.268Z,10.00
2023-05-08T04:07:55.575Z,8.30
2023-05-08T04:10:36.444Z,10.20
2023-05-08T04:13:13.826Z,10.70
2023-05-08T04:15:53.605Z,10.50
2023-05-08T04:18:30.513Z,10.60
2023-05-08T04:21:08.490Z,14.00
2023-05-08T04:23:43.732Z,12.00
2023-05-08T04:26:19.281Z,12.30
2023-05-08T04:28:54.253Z,11.80
2023-05-08T04:31:30.421Z,12.30
2023-05-08T04:34:04.494Z,11.30
2023-05-08T04:36:39.291Z,12.90
2023-05-08T04:39:12.901Z,12.70
2023-05-08T04:41:48.304Z,14.30
2023-05-08T04:44:22.212Z,13.60
2023-05-08T04:46:55.860Z,13.40
2023-05-08T04:49:29.725Z,12.90
2023-05-08T04:52:03.696Z,13.20
2023-05-08T04:54:37.643Z,13.00
2023-05-08T04:57:11.894Z,12.70
2023-05-08T04:59:45.369Z,14.80
2023-05-08T05:02:18.842Z,11.30
2023-05-08T05:04:53.613Z,12.80
2023-05-08T05:07:27.267Z,11.90
2023-05-08T05:10:01.382Z,11.60
2023-05-08T05:12:35.432Z,9.90
2023-05-08T05:15:11.997Z,10.60
2023-05-08T05:17:45.902Z,7.20
2023-05-08T05:20:20.332Z,6.20
2023-05-08T05:22:54.746Z,6.30
2023-05-08T05:25:28.578Z,4.60
2023-05-08T05:28:02.419Z,10.10
2023-05-08T05:30:35.646Z,5.60
2023-05-08T05:33:10.116Z,5.10
2023-05-08T05:35:43.764Z,2.50
2023-05-08T05:38:17.490Z,3.90
2023-05-08T05:40:51.696Z,3.80
2023-05-08T05:43:25.203Z,4.00
2023-05-08T05:46:05.872Z,2.50
2023-05-08T05:48:39.612Z,3.90
2023-05-08T05:51:13.968Z,5.40
2023-05-08T05:53:48.090Z,3.60
2023-05-08T05:56:21.927Z,4.40
2023-05-08T05:58:55.744Z,3.40
2023-05-08T06:01:30.611Z,6.00
2023-05-08T06:04:05.048Z,4.20
2023-05-08T06:06:40.761Z,5.70
2023-05-08T06:09:15.069Z,5.30
2023-05-08T06:11:48.666Z,4.50
2023-05-08T06:14:22.491Z,5.60
2023-05-08T06:16:56.498Z,3.70
2023-05-08T06:19:30.001Z,6.20
2023-05-08T06:22:04.060Z,4.60
2023-05-08T06:24:37.458Z,3.20
2023-05-08T06:27:10.505Z,3.60
2023-05-08T06:29:43.847Z,7.10
2023-05-08T06:32:17.893Z,4.60
2023-05-08T06:34:51.616Z,2.80
2023-05-08T06:37:25.635Z,3.80
2023-05-08T06:40:11.090Z,3.60
2023-05-08T06:42:46.544Z,3.70
2023-05-08T06:45:20.482Z,3.20
2023-05-08T06:47:54.048Z,6.10
2023-05-08T06:50:27.608Z,5.00
2023-05-08T06:53:00.917Z,5.20
2023-05-08T06:55:34.669Z,3.70
2023-05-08T06:58:08.517Z,3.20
2023-05-08T07:00:42.292Z,4.30
2023-05-08T07:03:16.073Z,3.50
2023-05-08T07:05:49.810Z,4.80
2023-05-08T07:08:23.328Z,4.30
2023-05-08T07:10:56.748Z,4.40
2023-05-08T07:13:31.135Z,3.40
2023-05-08T07:16:05.729Z,6.00
2023-05-08T07:18:39.898Z,4.90
2023-05-08T07:21:13.684Z,4.00
2023-05-08T07:23:48.338Z,5.60
2023-05-08T07:26:22.352Z,4.30
2023-05-08T07:28:55.862Z,4.70
2023-05-08T07:31:29.545Z,4.60
2023-05-08T07:34:03.062Z,4.90
2023-05-08T07:36:36.648Z,4.60
2023-05-08T07:39:10.576Z,3.80
2023-05-08T07:41:44.082Z,3.40
2023-05-08T07:44:17.579Z,3.00
2023-05-08T07:46:51.496Z,4.10
2023-05-08T07:49:25.070Z,3.40
2023-05-08T07:51:58.760Z,6.90
2023-05-08T07:54:32.244Z,6.30
2023-05-08T07:57:06.108Z,4.50
2023-05-08T07:59:39.744Z,3.10
2023-05-08T08:02:13.875Z,4.90
2023-05-08T08:04:47.867Z,5.10
2023-05-08T08:07:21.628Z,7.30
2023-05-08T08:09:56.311Z,3.60
2023-05-08T08:12:30.655Z,4.60
2023-05-08T08:15:05.018Z,4.90
2023-05-08T08:17:38.981Z,4.50
2023-05-08T08:20:14.263Z,6.50
2023-05-08T08:22:47.531Z,4.60
2023-05-08T08:25:21.252Z,6.20
2023-05-08T08:27:54.899Z,4.60
2023-05-08T08:30:28.483Z,4.40
2023-05-08T08:33:02.738Z,4.80
2023-05-08T08:35:36.694Z,4.40
2023-05-08T08:38:10.568Z,5.40
2023-05-08T08:40:45.008Z,3.90
2023-05-08T08:43:19.022Z,5.60
2023-05-08T08:45:52.596Z,5.30
2023-05-08T08:48:30.504Z,6.10
2023-05-08T08:51:08.578Z,5.00
2023-05-08T08:53:48.571Z,5.50
2023-05-08T08:56:25.685Z,4.90
2023-05-08T08:59:02.017Z,6.10
2023-05-08T09:01:37.968Z,4.30
2023-05-08T09:04:11.555Z,4.20
2023-05-08T09:06:46.085Z,5.10
2023-05-08T09:09:20.500Z,4.70
2023-05-08T09:11:55.876Z,7.10
2023-05-08T09:14:29.468Z,6.00
2023-05-08T09:17:03.252Z,3.50
2023-05-08T09:19:37.269Z,4.70
2023-05-08T09:22:11.456Z,4.90
2023-05-08T09:25:00.417Z,4.60
2023-05-08T09:27:35.049Z,7.10
2023-05-08T09:30:10.889Z,4.20
2023-05-08T09:32:46.037Z,5.30
2023-05-08T09:35:19.688Z,3.90
2023-05-08T09:37:54.271Z,4.50
2023-05-08T09:40:29.859Z,4.50
2023-05-08T09:43:15.607Z,3.50
2023-05-08T09:45:49.675Z,5.30
2023-05-08T09:48:40.419Z,6.10
2023-05-08T09:51:13.929Z,4.00
2023-05-08T09:53:48.038Z,5.60
2023-05-08T09:56:32.978Z,4.80
2023-05-08T09:59:23.983Z,4.60
2023-05-08T10:01:57.696Z,4.70
2023-05-08T10:04:38.580Z,5.70
2023-05-08T10:07:12.277Z,3.50
2023-05-08T10:10:02.216Z,4.00
2023-05-08T10:12:38.288Z,4.50
2023-05-08T10:15:13.998Z,4.40
2023-05-08T10:17:53.180Z,4.90
2023-05-08T10:20:31.538Z,7.70
2023-05-08T10:23:11.911Z,3.90
2023-05-08T10:25:47.867Z,6.70
2023-05-08T10:28:30.898Z,3.40
2023-05-08T10:31:09.122Z,7.20
2023-05-08T10:36:16.427Z,4.60
2023-05-08T10:38:51.703Z,5.60
2023-05-08T10:41:26.350Z,4.30
2023-05-08T10:44:03.174Z,14.10
2023-05-08T10:46:49.341Z,6.60
2023-05-08T10:49:29.546Z,3.80
2023-05-08T10:52:11.726Z,4.80
2023-05-08T10:55:11.319Z,4.80
2023-05-08T10:58:03.718Z,4.30
2023-05-08T11:01:20.166Z,4.80
2023-05-08T11:03:56.482Z,3.70
2023-05-08T11:06:49.458Z,4.50
2023-05-08T11:09:29.761Z,3.70
2023-05-08T11:12:20.352Z,5.90
2023-05-08T11:15:06.652Z,4.60
2023-05-08T11:17:46.976Z,3.60
2023-05-08T11:20:40.098Z,3.90
2023-05-08T11:23:36.827Z,3.30
2023-05-08T11:26:14.671Z,4.30
2023-05-08T11:28:59.295Z,3.80
2023-05-08T11:31:56.482Z,4.70
2023-05-08T11:34:51.008Z,4.80
2023-05-08T11:37:26.173Z,4.20
2023-05-08T11:40:36.789Z,6.20
2023-05-08T11:43:28.520Z,3.50
2023-05-08T11:46:04.610Z,4.50
2023-05-08T11:48:40.308Z,3.40
2023-05-08T11:51:14.721Z,7.00
2023-05-08T11:53:48.731Z,5.40
2023-05-08T11:56:22.808Z,3.10
2023-05-08T11:59:06.210Z,4.50
2023-05-08T12:01:40.137Z,4.50
2023-05-08T12:04:14.970Z,4.90
2023-05-08T12:06:51.745Z,4.80
2023-05-08T12:09:25.642Z,5.10
2023-05-08T12:12:01.920Z,5.30
2023-05-08T12:14:36.313Z,4.30
2023-05-08T12:17:10.219Z,7.60
2023-05-08T12:19:44.319Z,6.20
2023-05-08T12:22:18.114Z,4.20
2023-05-08T12:24:51.988Z,3.80
2023-05-08T12:27:28.546Z,5.20
2023-05-08T12:30:03.393Z,5.90
2023-05-08T12:32:38.084Z,5.10
2023-05-08T12:35:13.966Z,3.80
2023-05-08T12:37:48.753Z,8.70
2023-05-08T12:40:32.000Z,3.80
2023-05-08T12:43:06.925Z,4.20
2023-05-08T12:45:41.889Z,6.70
2023-05-08T12:48:17.296Z,5.30
2023-05-08T12:50:51.208Z,3.80
2023-05-08T12:53:25.381Z,7.50
2023-05-08T12:56:02.215Z,3.90
2023-05-08T12:58:36.360Z,3.80
2023-05-08T13:01:14.148Z,4.50
2023-05-08T13:04:01.397Z,4.80
2023-05-08T13:06:36.264Z,4.90
2023-05-08T13:09:10.068Z,6.20
2023-05-08T13:11:44.051Z,8.90
2023-05-08T13:14:18.401Z,4.60
2023-05-08T13:16:52.142Z,4.70
2023-05-08T13:19:25.866Z,4.40
2023-05-08T13:21:59.751Z,4.70
2023-05-08T13:24:33.704Z,6.10
2023-05-08T13:27:07.430Z,5.80
2023-05-08T13:29:41.191Z,4.10
2023-05-08T13:32:15.104Z,5.80
2023-05-08T13:34:51.157Z,5.30
2023-05-08T13:37:26.340Z,4.20
2023-05-08T13:40:00.135Z,6.40
2023-05-08T13:42:33.996Z,9.30
2023-05-08T13:45:08.920Z,4.90
2023-05-08T13:47:43.436Z,4.30
2023-05-08T13:50:19.861Z,6.20
2023-05-08T13:52:55.275Z,6.70
2023-05-08T13:55:29.579Z,7.60
2023-05-08T13:58:03.245Z,4.50
2023-05-08T14:00:36.708Z,8.40
2023-05-08T14:03:10.607Z,6.90
2023-05-08T14:05:44.656Z,3.40
2023-05-08T14:08:18.423Z,6.00
2023-05-08T14:10:53.023Z,3.60
2023-05-08T14:13:26.767Z,4.70
2023-05-08T14:16:00.326Z,5.80
2023-05-08T14:18:34.063Z,5.70
2023-05-08T14:21:08.001Z,4.40
2023-05-08T14:23:41.581Z,4.80
2023-05-08T14:26:15.407Z,3.60
2023-05-08T14:28:49.187Z,6.60
2023-05-08T14:31:22.883Z,6.20
2023-05-08T14:33:56.655Z,4.20
2023-05-08T14:36:30.437Z,5.80
2023-05-08T14:39:04.162Z,5.80
2023-05-08T14:41:40.631Z,5.10
2023-05-08T14:44:14.438Z,4.70
2023-05-08T14:46:48.316Z,4.80
2023-05-08T14:49:32.863Z,5.50
2023-05-08T14:52:11.788Z,4.20
2023-05-08T14:54:48.163Z,4.10
2023-05-08T14:57:24.946Z,4.30
2023-05-08T14:59:59.729Z,5.30
2023-05-08T15:02:33.897Z,7.00
2023-05-08T15:08:03.630Z,5.20
2023-05-08T15:10:38.346Z,5.70
2023-05-08T15:13:12.568Z,4.80
2023-05-08T15:15:47.115Z,6.30
2023-05-08T15:18:20.706Z,7.50
2023-05-08T15:20:54.542Z,5.80
2023-05-08T15:23:28.482Z,5.60
2023-05-08T15:26:03.818Z,5.30
2023-05-08T15:28:37.093Z,6.30
2023-05-08T15:31:10.846Z,4.60
2023-05-08T15:33:45.517Z,4.60
2023-05-08T15:36:19.916Z,5.50
2023-05-08T15:38:54.454Z,6.30
2023-05-08T15:41:28.129Z,5.20
2023-05-08T15:44:01.895Z,5.20
2023-05-08T15:46:35.875Z,6.30
2023-05-08T15:49:09.745Z,5.70
2023-05-08T15:51:43.548Z,3.90
2023-05-08T15:54:18.108Z,6.20
2023-05-08T15:56:52.151Z,5.20
2023-05-08T15:59:25.979Z,4.00
2023-05-08T16:02:00.085Z,8.00
2023-05-08T16:04:34.068Z,4.30
2023-05-08T16:07:07.504Z,5.30
2023-05-08T16:09:41.256Z,7.50
2023-05-08T16:12:14.946Z,5.20
2023-05-08T16:14:48.438Z,4.60
2023-05-08T16:17:22.093Z,7.70
2023-05-08T16:19:56.040Z,5.20
2023-05-08T16:22:29.924Z,5.60
2023-05-08T16:25:03.808Z,7.50
2023-05-08T16:27:37.400Z,4.60
2023-05-08T16:30:13.829Z,3.80
2023-05-08T16:32:47.962Z,4.20
2023-05-08T16:35:23.394Z,4.60
2023-05-08T16:37:57.403Z,8.10
2023-05-08T16:40:32.935Z,4.90
2023-05-08T16:43:08.973Z,6.50
2023-05-08T16:45:43.320Z,9.20
2023-05-08T16:48:17.374Z,5.90
2023-05-08T16:50:51.003Z,7.20
2023-05-08T16:53:27.476Z,8.40
2023-05-08T16:56:02.794Z,5.90
2023-05-08T16:58:37.357Z,6.40
2023-05-08T17:01:11.927Z,6.40
2023-05-08T17:03:45.252Z,6.10
2023-05-08T17:06:21.112Z,6.60
2023-05-08T17:08:55.065Z,5.40
2023-05-08T17:11:29.008Z,5.30
2023-05-08T17:14:02.677Z,4.90
2023-05-08T17:16:36.882Z,6.10
2023-05-08T17:19:10.636Z,7.90
2023-05-08T17:21:44.561Z,4.80
2023-05-08T17:24:19.965Z,4.90
2023-05-08T17:26:54.338Z,8.00
2023-05-08T17:29:28.258Z,5.50
2023-05-08T17:32:02.398Z,6.30
2023-05-08T17:34:37.142Z,6.00
2023-05-08T17:37:11.100Z,7.30
2023-05-08T17:39:44.975Z,6.40
2023-05-08T17:42:18.661Z,5.10
2023-05-08T17:44:52.411Z,6.40
2023-05-08T17:47:26.334Z,5.20
2023-05-08T17:50:00.153Z,7.20
2023-05-08T17:52:33.765Z,7.70
2023-05-08T17:55:09.608Z,7.70
2023-05-08T17:57:43.442Z,6.00
2023-05-08T18:00:19.427Z,7.70
2023-05-08T18:02:53.466Z,7.10
2023-05-08T18:05:27.456Z,8.60
2023-05-08T18:08:01.064Z,6.60
2023-05-08T18:10:36.352Z,4.60
2023-05-08T18:13:10.178Z,6.10
2023-05-08T18:15:44.703Z,10.10
2023-05-08T18:18:19.110Z,8.00
2023-05-08T18:20:54.063Z,7.40
2023-05-08T18:23:28.011Z,6.20
2023-05-08T18:26:02.330Z,8.50
2023-05-08T18:28:37.633Z,14.50
2023-05-08T18:31:12.174Z,7.20
2023-05-08T18:33:47.028Z,9.00
2023-05-08T18:36:21.731Z,7.80
2023-05-08T18:38:55.691Z,11.40
2023-05-08T18:41:29.780Z,8.90
2023-05-08T18:44:05.834Z,9.50
2023-05-08T18:46:40.187Z,10.40
2023-05-08T18:49:14.115Z,7.80
2023-05-08T18:51:48.137Z,11.00
2023-05-08T18:54:24.322Z,7.80
2023-05-08T18:56:59.179Z,9.50
2023-05-08T18:59:33.612Z,8.90
2023-05-08T19:02:08.365Z,8.70
2023-05-08T19:04:43.114Z,8.10
2023-05-08T19:07:17.598Z,9.90
2023-05-08T19:09:51.510Z,9.10
2023-05-08T19:12:25.525Z,8.00
2023-05-08T19:14:59.698Z,12.30
2023-05-08T19:17:35.313Z,6.60
2023-05-08T19:20:12.157Z,8.70
2023-05-08T19:22:47.299Z,9.10
2023-05-08T19:25:21.308Z,9.50
2023-05-08T19:27:55.035Z,11.90
2023-05-08T19:30:29.231Z,14.30
2023-05-08T19:33:03.536Z,10.00
2023-05-08T19:35:37.956Z,11.50
2023-05-08T19:38:12.458Z,11.20
2023-05-08T19:40:56.282Z,13.00
2023-05-08T19:43:32.030Z,11.10
2023-05-08T19:46:05.902Z,8.80
2023-05-08T19:48:40.266Z,9.70
2023-05-08T19:51:14.577Z,10.70
2023-05-08T19:53:48.340Z,10.00
2023-05-08T19:56:22.985Z,10.60
2023-05-08T19:58:56.832Z,9.80
2023-05-08T20:01:31.085Z,12.10
2023-05-08T20:04:05.285Z,12.10
2023-05-08T20:06:39.554Z,11.50
2023-05-08T20:09:13.234Z,10.50
2023-05-08T20:11:47.479Z,10.80
2023-05-08T20:14:21.317Z,15.00
2023-05-08T20:16:55.036Z,12.30
2023-05-08T20:19:28.701Z,12.40
2023-05-08T20:22:02.734Z,14.60
2023-05-08T20:24:36.543Z,12.00
2023-05-08T20:27:10.578Z,10.30
2023-05-08T20:29:45.629Z,10.20
2023-05-08T20:32:20.122Z,10.90
2023-05-08T20:34:53.922Z,11.60
2023-05-08T20:37:27.957Z,10.30
2023-05-08T20:40:05.261Z,11.90
2023-05-08T20:42:39.064Z,12.40
2023-05-08T20:45:14.024Z,13.20
2023-05-08T20:47:49.102Z,14.80
2023-05-08T20:50:22.954Z,14.50
2023-05-08T20:52:56.365Z,14.10
2023-05-08T20:55:30.106Z,12.30
2023-05-08T20:58:04.560Z,14.50
2023-05-08T21:00:38.738Z,19.30
2023-05-08T21:03:12.593Z,16.10
2023-05-08T21:05:46.576Z,16.70
2023-05-08T21:08:22.587Z,18.60
2023-05-08T21:10:56.652Z,18.60
2023-05-08T21:13:30.618Z,19.50
2023-05-08T21:16:05.076Z,20.60
2023-05-08T21:18:38.938Z,17.40
2023-05-08T21:21:20.232Z,19.20
2023-05-08T21:23:53.734Z,22.70
2023-05-08T21:26:27.661Z,16.20
2023-05-08T21:29:02.953Z,18.10
2023-05-08T21:31:36.826Z,17.10
2023-05-08T21:34:10.463Z,19.80
2023-05-08T21:36:43.925Z,19.40
2023-05-08T21:39:17.212Z,21.50
2023-05-08T21:41:51.301Z,17.30
2023-05-08T21:44:24.888Z,20.80
2023-05-08T21:46:58.371Z,13.10
2023-05-08T21:49:32.122Z,16.40
2023-05-08T21:52:06.801Z,19.00
2023-05-08T21:54:40.773Z,13.50
2023-05-08T21:57:14.028Z,17.40
2023-05-08T21:59:49.495Z,17.20
2023-05-08T22:02:23.298Z,14.40
2023-05-08T22:04:57.273Z,20.00
2023-05-08T22:07:31.923Z,18.20
2023-05-08T22:10:05.812Z,15.50
2023-05-08T22:12:39.399Z,14.30
2023-05-08T22:15:26.067Z,15.90
2023-05-08T22:18:04.077Z,13.10
2023-05-08T22:20:37.560Z,17.30
2023-05-08T22:23:11.422Z,16.00
2023-05-08T22:25:44.956Z,16.00
2023-05-08T22:28:18.873Z,18.00
2023-05-08T22:30:52.782Z,17.00
2023-05-08T22:33:26.273Z,14.60
2023-05-08T22:36:00.004Z,17.40
2023-05-08T22:38:33.889Z,16.40
2023-05-08T22:41:08.369Z,15.20
2023-05-08T22:43:42.087Z,15.30
2023-05-08T22:46:15.585Z,17.50
2023-05-08T22:48:49.677Z,17.90
2023-05-08T22:51:22.985Z,16.10
2023-05-08T22:53:57.270Z,19.80
2023-05-08T22:56:31.011Z,20.30
2023-05-08T22:59:04.355Z,14.10
2023-05-08T23:01:38.022Z,16.60
2023-05-08T23:04:11.351Z,17.80
2023-05-08T23:06:44.614Z,18.50
2023-05-08T23:09:18.417Z,16.90
2023-05-08T23:11:52.371Z,16.20
2023-05-08T23:14:25.979Z,19.30
2023-05-08T23:16:59.913Z,16.10
2023-05-08T23:19:33.573Z,17.80
2023-05-08T23:22:07.582Z,23.60
2023-05-08T23:24:41.329Z,20.80
2023-05-08T23:27:15.496Z,19.30
2023-05-08T23:29:48.995Z,17.50
2023-05-08T23:32:22.479Z,23.10
2023-05-08T23:34:56.464Z,23.60
2023-05-08T23:37:30.546Z,20.40
2023-05-08T23:40:04.158Z,17.30
2023-05-08T23:42:38.377Z,22.80
2023-05-08T23:45:13.673Z,17.70
2023-05-08T23:47:47.592Z,19.50
2023-05-08T23:50:21.483Z,19.60
2023-05-08T23:52:55.338Z,23.40
2023-05-08T23:55:28.843Z,17.70
2023-05-08T23:58:02.102Z,22.90
